Aérodrome :
LOGIN :

S'inscrire | Disclaimer

   EN    FR    IT 

 










Légende :    VFR   VFR Marginal   IFR   IFR Intensif   IFR Très Intensif
Visi : 
Plafond : 
>= 8 km
>= 3000ft
5 à 8 km
1000 à 3000 ft
1500m à 5 km
500 à 1000 ft
800 à 1500m
200 à 500 ft
< 800m
< 200 ft
Symboles :   Orages  Brouillard  Fortes neiges  Fortes précipitations  Vent > 20 kt
SIGMETs :   Divers  Orages  Givrage  Turbulence  Onde Orograph.  Cendres Volcan.






- Altitude de l'aérodrome : 602 ft
- Code IATA : NVS


LFQG - Nevers

DERNIER METAR :
  • 101800Z AUTO VRB03KT 9999 -RA OVC044/// ///TCU 12/11 Q1009

METARs EXPIRÉS :
  • 101730Z AUTO 14004KT 9999 -RA BKN047/// OVC056/// ///TCU 13/11 Q1010
  • 101700Z AUTO 16002KT 9999 ///TCU 13/11 Q1010
  • 101630Z AUTO VRB02KT 9999 BKN048 OVC060 13/11 Q1010
  • 101600Z AUTO VRB03KT 9999 FEW019/// SCT048/// OVC060/// ///TCU 13/11 Q1010
  • 101530Z AUTO 26007KT 9999 RA FEW024/// BKN052/// OVC062/// ///TCU 13/10 Q1011

TAF N/A



MET'MAP, la Météo Aéronautique d'un coup d'oeil ! - Copyright ORBIFLY Décembre 2007 - Disclaimer

ORBIFLY MET'MAP TEAM :

Programmation & Développement : Alexandra Zaïnal
Sur une idée originale de : Baudouin d'Aumeries
Assistance à la programmation : Marc-Olivier Méhu
Soutien technique & logistique : Manuel Goepfert

Contact : metmap@orbifly.com




SOURCES & CREDITS :

   NOAA